createdAt,value
2023-07-10T00:01:01.462Z,78.93
2023-07-10T00:03:29.847Z,78.85
2023-07-10T00:05:57.599Z,78.69
2023-07-10T00:08:24.193Z,78.27
2023-07-10T00:10:51.509Z,78.54
2023-07-10T00:13:25.049Z,79.29
2023-07-10T00:15:53.538Z,79.20
2023-07-10T00:18:25.124Z,79.55
2023-07-10T00:20:51.696Z,79.72
2023-07-10T00:23:19.335Z,79.67
2023-07-10T00:25:46.152Z,79.55
2023-07-10T00:28:15.835Z,79.56
2023-07-10T00:30:42.564Z,79.92
2023-07-10T00:33:11.996Z,79.15
2023-07-10T00:35:39.108Z,79.64
2023-07-10T00:38:32.545Z,78.62
2023-07-10T00:41:01.715Z,79.31
2023-07-10T00:43:42.699Z,79.40
2023-07-10T00:46:30.508Z,79.47
2023-07-10T00:49:10.272Z,79.67
2023-07-10T00:51:45.706Z,78.67
2023-07-10T00:54:34.208Z,78.77
2023-07-10T00:57:06.627Z,78.77
2023-07-10T00:59:39.462Z,80.25
2023-07-10T01:02:09.099Z,79.98
2023-07-10T01:04:41.083Z,79.41
2023-07-10T01:07:16.130Z,79.78
2023-07-10T01:09:45.741Z,79.94
2023-07-10T01:12:12.745Z,80.15
2023-07-10T01:14:39.210Z,79.97
2023-07-10T01:17:08.022Z,79.47
2023-07-10T01:19:36.418Z,80.50
2023-07-10T01:22:04.343Z,79.56
2023-07-10T01:24:31.228Z,79.55
2023-07-10T01:26:58.667Z,80.07
2023-07-10T01:29:36.403Z,79.62
2023-07-10T01:32:04.041Z,79.16
2023-07-10T01:34:50.862Z,79.34
2023-07-10T01:37:18.182Z,79.96
2023-07-10T01:39:51.618Z,80.11
2023-07-10T01:42:18.492Z,79.75
2023-07-10T01:44:47.200Z,80.15
2023-07-10T01:47:15.558Z,80.59
2023-07-10T01:49:50.001Z,80.66
2023-07-10T01:52:19.966Z,80.79
2023-07-10T01:54:49.418Z,80.89
2023-07-10T01:57:18.024Z,80.99
2023-07-10T01:59:44.998Z,80.87
2023-07-10T02:02:13.202Z,81.08
2023-07-10T02:04:39.895Z,80.95
2023-07-10T02:07:06.588Z,81.20
2023-07-10T02:09:33.673Z,81.55
2023-07-10T02:12:01.465Z,81.87
2023-07-10T02:14:29.590Z,82.36
2023-07-10T02:16:56.641Z,81.75
2023-07-10T02:19:23.213Z,81.86
2023-07-10T02:21:49.781Z,81.80
2023-07-10T02:24:17.321Z,81.41
2023-07-10T02:26:43.918Z,82.18
2023-07-10T02:29:10.518Z,82.29
2023-07-10T02:31:37.499Z,82.54
2023-07-10T02:34:04.220Z,82.14
2023-07-10T02:36:30.990Z,81.97
2023-07-10T02:38:57.771Z,81.78
2023-07-10T02:41:24.844Z,81.67
2023-07-10T02:43:51.781Z,81.23
2023-07-10T02:46:18.498Z,81.14
2023-07-10T02:48:45.277Z,81.28
2023-07-10T02:51:11.783Z,80.98
2023-07-10T02:53:38.955Z,81.30
2023-07-10T02:56:05.751Z,81.06
2023-07-10T02:58:32.586Z,81.10
2023-07-10T03:01:01.054Z,80.74
2023-07-10T03:03:28.492Z,81.22
2023-07-10T03:05:57.067Z,81.21
2023-07-10T03:08:24.290Z,81.02
2023-07-10T03:10:59.775Z,81.32
2023-07-10T03:13:26.498Z,81.50
2023-07-10T03:16:05.704Z,81.60
2023-07-10T03:18:36.471Z,81.68
2023-07-10T03:21:03.315Z,81.48
2023-07-10T03:23:30.429Z,81.79
2023-07-10T03:25:57.254Z,81.60
2023-07-10T03:28:23.966Z,81.95
2023-07-10T03:30:50.973Z,82.25
2023-07-10T03:33:18.906Z,82.82
2023-07-10T03:35:49.749Z,82.77
2023-07-10T03:38:17.443Z,82.37
2023-07-10T03:40:51.660Z,82.64
2023-07-10T03:43:18.421Z,83.05
2023-07-10T03:45:44.926Z,82.77
2023-07-10T03:48:11.720Z,82.78
2023-07-10T03:50:38.492Z,82.91
2023-07-10T03:53:05.094Z,83.01
2023-07-10T03:55:31.633Z,83.01
2023-07-10T03:57:58.177Z,82.96
2023-07-10T04:00:24.713Z,82.75
2023-07-10T04:02:51.456Z,83.16
2023-07-10T04:05:18.268Z,83.77
2023-07-10T04:07:44.809Z,83.21
2023-07-10T04:10:12.481Z,83.46
2023-07-10T04:12:41.948Z,83.02
2023-07-10T04:15:08.966Z,83.43
2023-07-10T04:17:36.463Z,83.40
2023-07-10T04:20:04.405Z,83.44
2023-07-10T04:22:30.924Z,83.38
2023-07-10T04:25:05.301Z,83.36
2023-07-10T04:27:32.617Z,82.98
2023-07-10T04:30:00.142Z,82.96
2023-07-10T04:32:26.897Z,82.53
2023-07-10T04:34:53.523Z,83.25
2023-07-10T04:37:20.116Z,83.04
2023-07-10T04:39:46.585Z,82.76
2023-07-10T04:42:13.108Z,82.69
2023-07-10T04:44:39.650Z,82.90
2023-07-10T04:47:07.930Z,82.81
2023-07-10T04:49:34.563Z,82.56
2023-07-10T04:52:01.090Z,82.88
2023-07-10T04:54:27.587Z,82.90
2023-07-10T04:56:54.264Z,82.92
2023-07-10T04:59:20.953Z,82.61
2023-07-10T05:01:47.465Z,83.32
2023-07-10T05:04:14.098Z,83.41
2023-07-10T05:06:40.881Z,83.45
2023-07-10T05:09:07.456Z,83.26
2023-07-10T05:11:34.015Z,83.30
2023-07-10T05:14:00.995Z,82.97
2023-07-10T05:16:27.693Z,83.36
2023-07-10T05:18:56.334Z,82.51
2023-07-10T05:21:22.931Z,81.93
2023-07-10T05:23:50.449Z,80.74
2023-07-10T05:26:18.092Z,81.10
2023-07-10T05:28:45.508Z,80.69
2023-07-10T05:31:13.328Z,79.68
2023-07-10T05:33:41.104Z,77.50
2023-07-10T05:36:12.027Z,75.21
2023-07-10T05:38:39.447Z,75.30
2023-07-10T05:41:06.654Z,75.07
2023-07-10T05:43:34.757Z,74.89
2023-07-10T05:46:02.212Z,73.28
2023-07-10T05:48:29.854Z,73.32
2023-07-10T05:50:57.688Z,73.18
2023-07-10T05:53:24.734Z,72.29
2023-07-10T05:55:53.718Z,69.86
2023-07-10T05:58:24.018Z,71.05
2023-07-10T06:00:53.660Z,71.43
2023-07-10T06:03:20.145Z,71.25
2023-07-10T06:05:56.672Z,70.12
2023-07-10T06:08:24.693Z,68.76
2023-07-10T06:10:51.557Z,68.49
2023-07-10T06:13:18.430Z,69.45
2023-07-10T06:15:47.584Z,67.91
2023-07-10T06:18:16.455Z,66.02
2023-07-10T06:20:44.674Z,63.28
2023-07-10T06:23:11.246Z,61.56
2023-07-10T06:25:42.520Z,60.34
2023-07-10T06:28:09.038Z,60.85
2023-07-10T06:30:40.145Z,58.44
2023-07-10T06:33:06.705Z,57.85
2023-07-10T06:35:33.333Z,60.16
2023-07-10T06:38:01.933Z,59.60
2023-07-10T06:40:28.487Z,60.80
2023-07-10T06:42:55.114Z,59.67
2023-07-10T06:45:22.872Z,58.82
2023-07-10T06:47:49.568Z,57.75
2023-07-10T06:50:16.324Z,56.11
2023-07-10T06:52:44.282Z,55.38
2023-07-10T06:55:18.629Z,54.33
2023-07-10T06:57:45.784Z,53.33
2023-07-10T07:00:18.000Z,54.91
2023-07-10T07:02:44.950Z,53.67
2023-07-10T07:05:13.106Z,54.24
2023-07-10T07:07:42.494Z,50.99
2023-07-10T07:10:16.048Z,52.27
2023-07-10T07:12:44.129Z,49.96
2023-07-10T07:15:12.746Z,52.06
2023-07-10T07:17:39.854Z,51.50
2023-07-10T07:20:08.474Z,50.98
2023-07-10T07:22:35.122Z,49.61
2023-07-10T07:25:02.033Z,51.34
2023-07-10T07:27:32.692Z,50.77
2023-07-10T07:29:59.368Z,50.13
2023-07-10T07:32:25.978Z,49.48
2023-07-10T07:34:52.787Z,48.88
2023-07-10T07:37:19.494Z,47.64
2023-07-10T07:39:46.168Z,48.44
2023-07-10T07:42:12.771Z,46.26
2023-07-10T07:44:39.436Z,48.15
2023-07-10T07:47:06.386Z,46.81
2023-07-10T07:49:32.980Z,46.77
2023-07-10T07:51:59.628Z,47.50
2023-07-10T07:54:26.161Z,48.41
2023-07-10T07:56:52.796Z,48.44
2023-07-10T07:59:20.063Z,47.89
2023-07-10T08:01:49.538Z,48.04
2023-07-10T08:04:17.066Z,46.67
2023-07-10T08:06:44.583Z,46.26
2023-07-10T08:09:12.678Z,47.09
2023-07-10T08:11:39.192Z,45.43
2023-07-10T08:14:05.811Z,45.66
2023-07-10T08:16:32.462Z,44.29
2023-07-10T08:18:59.019Z,44.97
2023-07-10T08:21:25.961Z,44.93
2023-07-10T08:23:52.616Z,46.26
2023-07-10T08:26:19.199Z,45.83
2023-07-10T08:28:45.828Z,44.61
2023-07-10T08:31:12.430Z,44.30
2023-07-10T08:33:40.040Z,46.04
2023-07-10T08:36:07.953Z,44.89
2023-07-10T08:38:37.207Z,43.73
2023-07-10T08:41:13.584Z,45.13
2023-07-10T08:43:42.093Z,42.83
2023-07-10T08:46:16.854Z,42.03
2023-07-10T08:49:25.345Z,42.92
2023-07-10T08:52:04.134Z,42.85
2023-07-10T08:54:30.956Z,42.01
2023-07-10T08:57:23.740Z,41.89
2023-07-10T08:59:57.349Z,42.68
2023-07-10T09:02:37.972Z,42.15
2023-07-10T09:05:12.436Z,43.02
2023-07-10T09:07:43.472Z,42.99
2023-07-10T09:10:19.343Z,42.03
2023-07-10T09:12:58.337Z,42.49
2023-07-10T09:15:30.165Z,43.07
2023-07-10T09:18:05.723Z,42.49
2023-07-10T09:20:32.387Z,41.28
2023-07-10T09:23:02.073Z,38.07
2023-07-10T09:25:29.337Z,39.35
2023-07-10T09:27:57.172Z,38.60
2023-07-10T09:30:27.326Z,40.18
2023-07-10T09:33:01.428Z,38.65
2023-07-10T09:35:28.526Z,38.55
2023-07-10T09:37:55.181Z,36.37
2023-07-10T09:40:45.609Z,37.22
2023-07-10T09:43:21.234Z,38.58
2023-07-10T09:45:50.643Z,39.01
2023-07-10T09:48:24.552Z,40.54
2023-07-10T09:50:55.472Z,38.22
2023-07-10T09:53:33.845Z,37.50
2023-07-10T09:56:01.008Z,38.70
2023-07-10T09:58:27.550Z,36.61
2023-07-10T10:00:57.499Z,38.72
2023-07-10T10:03:33.012Z,38.40
2023-07-10T10:06:02.917Z,37.79
2023-07-10T10:08:33.900Z,38.41
2023-07-10T10:11:09.306Z,36.81
2023-07-10T10:13:42.065Z,37.73
2023-07-10T10:16:37.511Z,35.86
2023-07-10T10:19:23.733Z,37.02
2023-07-10T10:21:50.384Z,34.54
2023-07-10T10:24:17.889Z,35.57
2023-07-10T10:26:56.126Z,35.63
2023-07-10T10:29:41.149Z,34.20
2023-07-10T10:32:32.786Z,35.23
2023-07-10T10:35:32.626Z,36.57
2023-07-10T10:38:36.968Z,35.09
2023-07-10T10:41:19.596Z,34.68
2023-07-10T10:44:01.106Z,35.67
2023-07-10T10:46:33.411Z,33.20
2023-07-10T10:49:25.111Z,35.76
2023-07-10T10:52:23.382Z,35.40
2023-07-10T10:54:49.868Z,34.46
2023-07-10T10:57:16.288Z,36.65
2023-07-10T11:00:02.610Z,35.12
2023-07-10T11:02:50.144Z,35.57
2023-07-10T11:05:26.305Z,33.59
2023-07-10T11:07:58.405Z,35.11
2023-07-10T11:10:41.201Z,34.41
2023-07-10T11:13:24.718Z,33.35
2023-07-10T11:15:52.752Z,32.29
2023-07-10T11:18:20.352Z,32.74
2023-07-10T11:20:47.425Z,34.76
2023-07-10T11:23:42.079Z,35.01
2023-07-10T11:26:14.118Z,35.20
2023-07-10T11:29:08.475Z,34.02
2023-07-10T11:31:38.012Z,34.65
2023-07-10T11:34:07.775Z,35.81
2023-07-10T11:36:34.175Z,34.84
2023-07-10T11:39:15.237Z,35.47
2023-07-10T11:41:44.748Z,35.65
2023-07-10T11:44:32.418Z,36.51
2023-07-10T11:47:01.786Z,36.99
2023-07-10T11:49:43.317Z,36.52
2023-07-10T11:52:15.888Z,38.45
2023-07-10T11:54:42.450Z,37.80
2023-07-10T11:57:09.531Z,38.18
2023-07-10T12:00:00.029Z,36.61
2023-07-10T12:02:38.276Z,37.89
2023-07-10T12:05:20.376Z,36.38
2023-07-10T12:08:12.010Z,36.22
2023-07-10T12:10:51.570Z,36.18
2023-07-10T12:13:25.062Z,37.38
2023-07-10T12:16:01.968Z,36.17
2023-07-10T12:18:34.393Z,36.83
2023-07-10T12:21:04.473Z,36.38
2023-07-10T12:23:31.072Z,36.95
2023-07-10T12:25:59.683Z,35.43
2023-07-10T12:28:29.288Z,36.53
2023-07-10T12:30:59.916Z,37.05
2023-07-10T12:33:41.637Z,36.17
2023-07-10T12:36:30.750Z,35.66
2023-07-10T12:38:59.900Z,35.89
2023-07-10T12:41:27.217Z,37.12
2023-07-10T12:43:58.658Z,36.55
2023-07-10T12:46:29.259Z,36.09
2023-07-10T12:49:14.694Z,37.49
2023-07-10T12:51:45.715Z,37.92
2023-07-10T12:54:23.845Z,36.82
2023-07-10T12:56:53.563Z,36.90
2023-07-10T12:59:28.082Z,36.72
2023-07-10T13:02:05.820Z,36.21
2023-07-10T13:04:38.644Z,37.32
2023-07-10T13:07:30.481Z,37.31
2023-07-10T13:10:25.584Z,37.20
2023-07-10T13:12:57.558Z,35.89
2023-07-10T13:15:34.514Z,37.09
2023-07-10T13:18:01.826Z,34.99
2023-07-10T13:20:30.855Z,35.18
2023-07-10T13:22:59.840Z,35.93
2023-07-10T13:25:33.088Z,35.73
2023-07-10T13:27:59.943Z,35.82
2023-07-10T13:30:29.095Z,33.85
2023-07-10T13:32:55.826Z,34.19
2023-07-10T13:35:22.592Z,34.11
2023-07-10T13:37:49.358Z,35.60
2023-07-10T13:40:22.486Z,34.65
2023-07-10T13:42:50.503Z,34.83
2023-07-10T13:45:17.054Z,35.06
2023-07-10T13:47:43.673Z,36.13
2023-07-10T13:50:16.779Z,35.38
2023-07-10T13:52:43.403Z,36.07
2023-07-10T13:55:15.165Z,33.47
2023-07-10T13:57:42.079Z,34.51
2023-07-10T14:00:14.007Z,35.14
2023-07-10T14:02:41.275Z,34.90
2023-07-10T14:05:17.705Z,37.18
2023-07-10T14:07:44.722Z,36.60
2023-07-10T14:10:18.978Z,36.19
2023-07-10T14:12:46.901Z,37.51
2023-07-10T14:15:17.047Z,38.45
2023-07-10T14:17:44.104Z,36.25
2023-07-10T14:20:23.266Z,36.61
2023-07-10T14:22:49.894Z,35.88
2023-07-10T14:25:19.722Z,36.99
2023-07-10T14:27:46.534Z,38.93
2023-07-10T14:30:21.298Z,38.00
2023-07-10T14:32:48.633Z,39.06
2023-07-10T14:35:18.331Z,40.03
2023-07-10T14:37:46.167Z,38.62
2023-07-10T14:40:16.027Z,39.72
2023-07-10T14:42:42.986Z,37.46
2023-07-10T14:45:17.325Z,38.21
2023-07-10T14:47:45.628Z,39.99
2023-07-10T14:50:13.257Z,38.64
2023-07-10T14:52:42.436Z,39.17
2023-07-10T14:55:17.645Z,38.25
2023-07-10T14:57:44.417Z,38.32
2023-07-10T15:00:17.025Z,38.40
2023-07-10T15:02:43.679Z,40.00
2023-07-10T15:05:10.311Z,39.62
2023-07-10T15:07:39.117Z,38.50
2023-07-10T15:10:25.349Z,37.88
2023-07-10T15:12:53.476Z,38.32
2023-07-10T15:15:20.243Z,39.14
2023-07-10T15:17:47.908Z,38.57
2023-07-10T15:20:19.865Z,40.32
2023-07-10T15:22:47.509Z,41.50
2023-07-10T15:25:22.782Z,39.88
2023-07-10T15:27:51.240Z,39.06
2023-07-10T15:30:21.289Z,37.29
2023-07-10T15:32:50.538Z,38.96
2023-07-10T15:35:19.936Z,38.59
2023-07-10T15:37:49.205Z,37.50
2023-07-10T15:40:21.971Z,37.65
2023-07-10T15:42:50.978Z,37.34
2023-07-10T15:45:19.611Z,37.92
2023-07-10T15:47:48.883Z,39.27
2023-07-10T15:50:17.379Z,38.26
2023-07-10T15:52:47.947Z,38.75
2023-07-10T15:55:19.564Z,39.34
2023-07-10T15:57:50.439Z,38.89
2023-07-10T16:00:25.518Z,39.96
2023-07-10T16:02:55.776Z,39.46
2023-07-10T16:05:28.959Z,39.69
2023-07-10T16:07:56.719Z,41.15
2023-07-10T16:10:24.698Z,39.94
2023-07-10T16:12:53.526Z,40.28
2023-07-10T16:15:22.674Z,40.17
2023-07-10T16:17:51.052Z,39.79
2023-07-10T16:20:26.302Z,40.25
2023-07-10T16:23:03.765Z,41.00
2023-07-10T16:25:30.527Z,40.27
2023-07-10T16:27:57.515Z,40.44
2023-07-10T16:30:26.741Z,40.24
2023-07-10T16:32:56.084Z,41.10
2023-07-10T16:35:24.580Z,41.47
2023-07-10T16:37:55.569Z,41.91
2023-07-10T16:40:24.521Z,40.91
2023-07-10T16:42:54.669Z,41.97
2023-07-10T16:45:31.650Z,41.27
2023-07-10T16:47:58.961Z,41.64
2023-07-10T16:50:25.886Z,41.70
2023-07-10T16:52:52.617Z,41.91
2023-07-10T16:55:24.644Z,42.03
2023-07-10T16:57:53.942Z,41.30
2023-07-10T17:00:29.194Z,41.10
2023-07-10T17:02:58.673Z,42.72
2023-07-10T17:05:25.265Z,42.06
2023-07-10T17:07:51.855Z,41.34
2023-07-10T17:10:19.003Z,43.41
2023-07-10T17:12:49.207Z,42.20
2023-07-10T17:15:18.320Z,42.40
2023-07-10T17:17:45.266Z,41.40
2023-07-10T17:20:16.466Z,44.07
2023-07-10T17:22:43.502Z,42.16
2023-07-10T17:25:16.378Z,42.81
2023-07-10T17:27:44.126Z,44.24
2023-07-10T17:30:15.344Z,44.17
2023-07-10T17:32:42.425Z,43.92
2023-07-10T17:35:20.538Z,44.32
2023-07-10T17:37:51.196Z,43.11
2023-07-10T17:40:18.216Z,43.27
2023-07-10T17:42:45.791Z,43.52
2023-07-10T17:45:20.507Z,43.61
2023-07-10T17:47:48.108Z,42.87
2023-07-10T17:50:16.640Z,44.12
2023-07-10T17:52:46.149Z,43.84
2023-07-10T17:55:21.343Z,43.27
2023-07-10T17:57:49.254Z,43.22
2023-07-10T18:00:17.573Z,43.88
2023-07-10T18:02:46.736Z,45.18
2023-07-10T18:05:19.753Z,44.30
2023-07-10T18:07:46.736Z,44.59
2023-07-10T18:10:13.852Z,46.67
2023-07-10T18:12:41.511Z,46.10
2023-07-10T18:15:16.599Z,46.53
2023-07-10T18:17:44.898Z,45.90
2023-07-10T18:20:13.567Z,45.20
2023-07-10T18:22:42.280Z,45.31
2023-07-10T18:25:17.766Z,44.83
2023-07-10T18:27:46.662Z,45.34
2023-07-10T18:30:17.854Z,44.89
2023-07-10T18:32:45.217Z,45.00
2023-07-10T18:35:17.227Z,44.50
2023-07-10T18:37:44.007Z,44.76
2023-07-10T18:40:11.392Z,45.58
2023-07-10T18:42:38.188Z,46.81
2023-07-10T18:45:18.662Z,45.42
2023-07-10T18:47:45.420Z,46.60
2023-07-10T18:50:16.266Z,45.34
2023-07-10T18:52:43.746Z,45.93
2023-07-10T18:55:20.092Z,45.81
2023-07-10T18:57:48.685Z,45.85
2023-07-10T19:00:23.812Z,46.47
2023-07-10T19:02:54.488Z,46.08
2023-07-10T19:05:21.276Z,46.51
2023-07-10T19:07:48.021Z,46.98
2023-07-10T19:10:17.261Z,46.69
2023-07-10T19:12:43.896Z,45.86
2023-07-10T19:15:10.861Z,47.60
2023-07-10T19:17:38.462Z,46.55
2023-07-10T19:23:33.477Z,47.50
2023-07-10T19:25:59.963Z,47.50
2023-07-10T19:28:31.237Z,48.53
2023-07-10T19:31:00.582Z,47.82
2023-07-10T19:33:33.872Z,47.11
2023-07-10T19:36:01.053Z,48.76
2023-07-10T19:38:31.898Z,47.52
2023-07-10T19:41:01.298Z,48.30
2023-07-10T19:43:27.891Z,48.63
2023-07-10T19:45:57.465Z,46.77
2023-07-10T19:48:29.326Z,45.95
2023-07-10T19:50:55.863Z,46.09
2023-07-10T19:53:31.576Z,45.91
2023-07-10T19:56:01.179Z,47.55
2023-07-10T19:58:33.042Z,45.82
2023-07-10T20:01:00.427Z,46.20
2023-07-10T20:03:35.086Z,46.75
2023-07-10T20:06:04.832Z,47.10
2023-07-10T20:08:35.206Z,47.19
2023-07-10T20:11:07.670Z,47.71
2023-07-10T20:13:35.705Z,47.72
2023-07-10T20:16:06.092Z,47.55
2023-07-10T20:18:36.040Z,47.80
2023-07-10T20:21:03.815Z,47.24
2023-07-10T20:23:31.125Z,47.21
2023-07-10T20:26:01.479Z,49.02
2023-07-10T20:28:34.276Z,48.79
2023-07-10T20:31:00.838Z,48.28
2023-07-10T20:33:31.219Z,49.50
2023-07-10T20:36:01.550Z,49.70
2023-07-10T20:38:40.366Z,48.98
2023-07-10T20:41:12.274Z,49.79
2023-07-10T20:43:41.075Z,49.51
2023-07-10T20:46:23.557Z,49.56
2023-07-10T20:48:51.825Z,48.94
2023-07-10T20:51:24.841Z,50.56
2023-07-10T20:53:52.580Z,49.88
2023-07-10T20:56:27.546Z,51.12
2023-07-10T20:58:55.556Z,50.93
2023-07-10T21:01:32.374Z,51.88
2023-07-10T21:03:59.198Z,51.05
2023-07-10T21:06:34.277Z,51.20
2023-07-10T21:09:11.846Z,51.50
2023-07-10T21:11:38.358Z,51.70
2023-07-10T21:14:10.518Z,50.96
2023-07-10T21:16:37.559Z,52.46
2023-07-10T21:19:20.207Z,52.69
2023-07-10T21:21:47.385Z,52.34
2023-07-10T21:24:20.632Z,52.63
2023-07-10T21:26:51.497Z,53.38
2023-07-10T21:29:18.277Z,53.51
2023-07-10T21:31:44.978Z,54.08
2023-07-10T21:34:14.204Z,55.29
2023-07-10T21:36:41.969Z,54.81
2023-07-10T21:39:09.157Z,55.06
2023-07-10T21:41:42.816Z,55.74
2023-07-10T21:44:23.383Z,56.06
2023-07-10T21:46:51.138Z,57.27
2023-07-10T21:49:17.968Z,57.10
2023-07-10T21:51:45.538Z,57.70
2023-07-10T21:54:12.877Z,57.96
2023-07-10T21:56:42.742Z,58.19
2023-07-10T21:59:18.651Z,58.21
2023-07-10T22:01:45.256Z,57.80
2023-07-10T22:04:12.263Z,58.42
2023-07-10T22:06:44.518Z,58.62
2023-07-10T22:09:12.938Z,59.69
2023-07-10T22:11:42.056Z,59.83
2023-07-10T22:14:17.911Z,59.88
2023-07-10T22:16:45.660Z,60.70
2023-07-10T22:19:13.308Z,59.22
2023-07-10T22:21:41.346Z,60.63
2023-07-10T22:24:16.020Z,60.87
2023-07-10T22:26:42.560Z,61.34
2023-07-10T22:29:09.247Z,61.44
2023-07-10T22:31:35.834Z,60.99
2023-07-10T22:34:02.542Z,61.26
2023-07-10T22:36:29.159Z,61.04
2023-07-10T22:38:55.661Z,61.99
2023-07-10T22:41:26.722Z,62.21
2023-07-10T22:43:59.983Z,62.49
2023-07-10T22:46:33.807Z,62.03
2023-07-10T22:49:02.901Z,62.31
2023-07-10T22:51:31.269Z,62.75
2023-07-10T22:53:58.988Z,62.54
2023-07-10T22:56:28.680Z,63.04
2023-07-10T22:58:55.489Z,63.16
2023-07-10T23:01:23.006Z,63.86
2023-07-10T23:03:52.605Z,63.14
2023-07-10T23:06:24.726Z,63.83
2023-07-10T23:08:52.672Z,64.32
2023-07-10T23:11:19.596Z,64.44
2023-07-10T23:13:46.463Z,64.44
2023-07-10T23:16:15.819Z,64.52
2023-07-10T23:18:52.632Z,64.23
2023-07-10T23:21:20.364Z,64.37
2023-07-10T23:23:47.510Z,64.81
2023-07-10T23:26:15.902Z,65.20
2023-07-10T23:28:42.654Z,65.56
2023-07-10T23:31:19.322Z,65.19
2023-07-10T23:33:45.969Z,65.64
2023-07-10T23:36:12.752Z,65.82
2023-07-10T23:38:39.681Z,65.92
2023-07-10T23:41:06.273Z,65.63
2023-07-10T23:43:33.131Z,66.01
2023-07-10T23:45:59.720Z,66.27
2023-07-10T23:48:26.432Z,66.52
2023-07-10T23:50:55.713Z,66.54
2023-07-10T23:53:25.795Z,66.56
2023-07-10T23:55:53.434Z,66.54
2023-07-10T23:58:19.986Z,67.00
